Aviation Digital Data Service (ADDS)

Output produced by METARs form (0307 UTC 17 January 2018)
found at http://www.aviationweather.gov/adds/metars/
 
KDUJ 170305Z AUTO 25008KT 2 1/2SM -SN FEW009 OVC050 M10/M13 A3031 RMK AO2 SNB0255 P0000 T11001128
KDUJ 170253Z AUTO 25011KT 4SM HZ FEW012 OVC050 M10/M13 A3032 RMK AO2 SNB33E43 SLP296 P0000 60000 T11001128 53012
KDUJ 170153Z AUTO 25010KT 6SM HZ SCT040 OVC060 M09/M12 A3030 RMK AO2 SNE36 SLP291 P0000 T10941122
KDUJ 170109Z AUTO 25014KT 3SM -SN SCT007 BKN041 OVC049 M08/M11 A3029 RMK AO2 P0000 T10831111
KDUJ 170059Z AUTO 25014KT 3SM -SN BKN007 OVC035 M08/M11 A3029 RMK AO2 P0000 T10781106
KDUJ 170053Z AUTO 25015KT 2 1/2SM -SN BR SCT008 OVC035 M08/M09 A3028 RMK AO2 SLP284 P0000 T10781094
KDUJ 170050Z AUTO 25013KT 2 1/2SM -SN BR SCT008 OVC035 M07/M09 A3028 RMK AO2 P0000
KDUJ 170037Z AUTO 25011KT 1 1/2SM -SN BR SCT007 SCT012 OVC032 M07/M08 A3028 RMK AO2 P0000 T10671083
KDUJ 170027Z AUTO 26010KT 1 1/2SM -SN BR BKN007 BKN010 OVC028 M06/M08 A3027 RMK AO2 P0000 T10561078
KDUJ 170009Z AUTO 27009KT 1 1/2SM -SN BR FEW008 FEW014 OVC026 M05/M07 A3027 RMK AO2 P0000 T10501072
KDUJ 162353Z AUTO 27010KT 1 1/4SM -SN BR FEW014 OVC020 M05/M07 A3027 RMK AO2 SLP276 P0000 60003 T10501072 11033 21050 53007
KDUJ 162305Z AUTO 25008KT 1 1/4SM -SN BR SCT006 OVC022 M05/M07 A3026 RMK AO2 P0000 T10501067
KDUJ 162253Z AUTO 25009KT 1SM -SN BR BKN006 OVC012 M04/M07 A3026 RMK AO2 SLP271 P0001 T10441067
KDUJ 162246Z AUTO 26010KT 3/4SM -SN BR BKN006 OVC012 M04/M06 A3025 RMK AO2 CIG 004V010 P0001 T10441061
KDUJ 162220Z AUTO 24004KT 1/2SM -SN FZFG FEW008 OVC017 M04/M06 A3025 RMK AO2 P0001 T10391056
KDUJ 162213Z AUTO 23004KT 1/2SM -SN FZFG BKN013 OVC019 M04/M06 A3024 RMK AO2 P0000 T10391056
KDUJ 162153Z AUTO 24005KT 1/2SM -SN FZFG FEW006 SCT010 OVC019 M04/M06 A3025 RMK AO2 SLP268 P0001 T10391056
KDUJ 162126Z AUTO 26004KT 1/2SM -SN FZFG SCT008 OVC017 M04/M06 A3025 RMK AO2 P0001 T10391056
KDUJ 162053Z AUTO 22004KT 3/4SM -SN BR BKN008 OVC021 M04/M06 A3025 RMK AO2 SLP268 P0001 60001 T10391061 55001
KDUJ 162048Z AUTO 23003KT 3/4SM -SN BR BKN008 OVC021 M04/M06 A3024 RMK AO2 P0001
KDUJ 162006Z AUTO 25006KT 3/4SM -SN BR FEW008 BKN027 OVC043 M04/M06 A3024 RMK AO2 P0000 T10391061
KDUJ 161953Z AUTO 24005KT 1 1/4SM -SN BR BKN035 OVC046 M04/M06 A3025 RMK AO2 SLP269 P0000 T10391061
KDUJ 161937Z AUTO 23007KT 1 1/4SM -SN FEW010 BKN035 OVC045 M04/M07 A3024 RMK AO2 P0000 T10391067
KDUJ 161929Z AUTO 23007KT 1 1/4SM -SN BR FEW008 BKN029 OVC036 M04/M06 A3025 RMK AO2 P0000 T10391061
KDUJ 161901Z AUTO 22006KT 3/4SM -SN BR FEW008 BKN019 OVC029 M03/M06 A3024 RMK AO2 P0000 T10331056
KDUJ 161853Z AUTO 22006KT 3/4SM -SN BKN021 BKN029 OVC036 M03/M06 A3025 RMK AO2 SLP269 P0000 T10331061
KDUJ 161839Z AUTO 22007KT 3/4SM -SN SCT012 BKN025 OVC036 M03/M06 A3025 RMK AO2 P0000 T10331061
KDUJ 161828Z AUTO 22007KT 1 1/4SM -SN FEW012 SCT017 OVC039 M03/M06 A3025 RMK AO2 P0000 T10331061
KDUJ 161809Z AUTO 21005KT 1 1/4SM -SN SCT010 BKN024 OVC047 M03/M06 A3026 RMK AO2 P0000 T10331061
KDUJ 161801Z AUTO 22006KT 3/4SM -SN BR SCT010 BKN017 OVC026 M04/M06 A3026 RMK AO2 P0000 T10391061
KDUJ 161753Z AUTO 22008KT 3/4SM -SN BKN010 BKN017 OVC028 M03/M06 A3026 RMK AO2 SNE12B31 SLP275 P0000 60000 T10331061 11033 21056 56017
KDUJ 161725Z AUTO VRB05KT 1 3/4SM BR SCT010 BKN014 OVC040 M04/M06 A3027 RMK AO2 SNE12 P0000 T10391061
KDUJ 161721Z AUTO 22004KT 2SM BR SCT008 BKN015 OVC045 M04/M06 A3028 RMK AO2 SNE12 P0000 T10391061
KDUJ 161653Z AUTO 22004KT 1SM -SN BR BKN008 M04/M06 A3029 RMK AO2 SNE1559B10 SLP283 P0000 T10391061
KDUJ 161646Z AUTO 24004KT 1SM -SN BR BKN008 OVC012 M04/M06 A3029 RMK AO2 SNE1559B10 P0000 T10391061
KDUJ 161642Z AUTO 23004KT 3/4SM -SN BR OVC010 M04/M06 A3030 RMK AO2 SNE1559B10 P0000 T10391061
KDUJ 161633Z AUTO 00000KT 3/4SM -SN BR BKN008 OVC014 M04/M06 A3030 RMK AO2 SNE1559B10 P0000 T10391061
KDUJ 161619Z AUTO 21003KT 3/4SM -SN BR BKN010 OVC016 M04/M07 A3030 RMK AO2 SNE1559B10 P0000 T10441067
KDUJ 161611Z AUTO 00000KT 2 1/2SM -SN BR BKN010 OVC015 M04/M07 A3031 RMK AO2 SNE1559B10 P0000 T10441067
KDUJ 161606Z AUTO 18003KT 3SM BR BKN008 OVC013 M04/M07 A3031 RMK AO2 SNE1559 P0000 T10441067
KDUJ 161601Z AUTO VRB03KT 3SM BR BKN010 OVC022 M04/M07 A3031 RMK AO2 SNE1559 P0000 T10441067
KDUJ 161553Z AUTO 15003KT 2 1/2SM -SN BR BKN010 BKN014 OVC047 M04/M07 A3031 RMK AO2 SNB41 SLP294 P0000 T10441067
KDUJ 161551Z AUTO 16003KT 2 1/2SM -SN BR BKN010 BKN016 OVC047 M04/M07 A3031 RMK AO2 SNB41 P0000
KDUJ 161538Z AUTO 17005KT 7SM BKN008 BKN050 OVC060 M04/M07 A3031 RMK AO2 T10441067
KDUJ 161453Z AUTO 23004KT 3SM BR FEW007 BKN037 OVC049 M05/M07 A3031 RMK AO2 SNE10 SLP292 P0000 60000 T10501072 51006
KDUJ 161415Z AUTO 22003KT 3SM BR FEW014 BKN044 OVC070 M05/M07 A3030 RMK AO2 SNE10 P0000 T10501072
KDUJ 161353Z AUTO 21003KT 2 1/2SM -SN BR FEW013 BKN038 OVC060 M06/M07 A3030 RMK AO2 SLP291 P0000 T10561072
KDUJ 161332Z AUTO 00000KT 1SM -SN BR FEW009 BKN036 OVC046 M06/M07 A3030 RMK AO2 P0000 T10561072
KDUJ 161253Z AUTO 22004KT 1SM -SN BR OVC033 M06/M07 A3031 RMK AO2 SLP293 P0000 T10561072
KDUJ 161241Z AUTO 20003KT 1 3/4SM -SN BR FEW014 OVC031 M06/M07 A3030 RMK AO2 P0000 T10561072
KDUJ 161230Z AUTO 20003KT 3SM -SN BR FEW016 OVC037 M06/M07 A3029 RMK AO2 P0000 T10561072
KDUJ 161221Z AUTO 18003KT 1 1/2SM -SN BR SCT014 OVC035 M06/M07 A3029 RMK AO2 P0000 T10561072
KDUJ 161157Z AUTO 21004KT 2SM -SN BR OVC030 M06/M07 A3029 RMK AO2 P0000 T10561072
KDUJ 161153Z AUTO 22004KT 1 3/4SM -SN BR OVC026 M06/M07 A3029 RMK AO2 SLP286 P0001 60004 70006 T10561072 11056 21078 53011
KDUJ 161107Z AUTO 20003KT 1 1/2SM -SN BR SCT009 OVC019 M06/M08 A3028 RMK AO2 P0000 T10561078
KDUJ 161053Z AUTO 00000KT 1 1/4SM -SN BR BKN009 OVC025 M06/M08 A3028 RMK AO2 SLP282 P0001 T10611078
KDUJ 161040Z AUTO 21003KT 1 1/2SM -SN BR BKN008 OVC031 M06/M08 A3027 RMK AO2 P0001 T10611078
KDUJ 161030Z AUTO 20003KT 1 1/2SM -SN BR SCT008 BKN029 OVC049 M06/M08 A3027 RMK AO2 P0001 T10611078
KDUJ 161018Z AUTO 21003KT 1 1/4SM -SN BR BKN010 BKN029 OVC049 M06/M08 A3027 RMK AO2 P0001 T10611078
KDUJ 160953Z AUTO 20003KT 1 1/4SM -SN BR OVC009 M06/M08 A3027 RMK AO2 SLP279 P0000 T10611083
KDUJ 160941Z AUTO 00000KT 1SM -SN BR BKN009 OVC014 M07/M08 A3026 RMK AO2 P0000 T10671083
KDUJ 160933Z AUTO 18003KT 1 1/2SM -SN BR BKN010 BKN028 OVC046 M07/M08 A3026 RMK AO2 P0000 T10671083
KDUJ 160919Z AUTO 17004KT 1 1/2SM -SN BR FEW008 BKN024 OVC047 M07/M08 A3025 RMK AO2 P0000 T10671083
KDUJ 160900Z AUTO 18004KT 1 1/4SM -SN BR SCT010 OVC020 M07/M08 A3026 RMK AO2 P0000 T10671083
KDUJ 160853Z AUTO VRB04KT 1 1/4SM -SN BR BKN010 OVC020 M07/M09 A3025 RMK AO2 SLP275 P0002 60002 T10671089 50006
KDUJ 160801Z AUTO 00000KT 1 1/2SM -SN BR OVC013 M07/M09 A3026 RMK AO2 P0000 T10671089
KDUJ 160753Z AUTO 00000KT 1SM -SN BR BKN015 OVC020 M07/M09 A3026 RMK AO2 SLP277 P0000 T10721089
KDUJ 160741Z AUTO VRB03KT 1 3/4SM -SN BR BKN017 OVC036 M07/M09 A3025 RMK AO2 P0000 T10721094
KDUJ 160712Z AUTO 00000KT 2SM -SN BR OVC040 M07/M09 A3025 RMK AO2 P0000 T10721089
KDUJ 160653Z AUTO 00000KT 1 1/2SM -SN BR SCT031 BKN043 OVC070 M07/M09 A3024 RMK AO2 SLP270 P0000 T10721094
KDUJ 160649Z AUTO 13005KT 1 3/4SM -SN BR BKN043 OVC070 M07/M09 A3024 RMK AO2 P0000
KDUJ 160640Z AUTO 00000KT 3SM -SN BR BKN039 BKN047 OVC070 M07/M09 A3024 RMK AO2 P0000 T10721094
KDUJ 160630Z AUTO VRB03KT 3SM -SN BR BKN029 BKN047 OVC070 M07/M09 A3024 RMK AO2 P0000 T10721094
KDUJ 160553Z AUTO 13008KT 1SM -SN BR BKN024 OVC038 M08/M10 A3023 RMK AO2 SLP269 P0000 60002 T10781100 11078 21089 56002
KDUJ 160536Z AUTO 13007KT 1 3/4SM -SN BR OVC032 M08/M10 A3023 RMK AO2 P0000 T10781100
KDUJ 160453Z AUTO 13011KT 2 1/2SM -SN FEW035 OVC042 M08/M11 A3024 RMK AO2 SNE34B36 SLP271 P0000 T10781106 410781156
KDUJ 160448Z AUTO 13009KT 2 1/2SM -SN FEW035 OVC042 M08/M11 A3024 RMK AO2 SNE34B36 P0000
KDUJ 160434Z AUTO 13009KT 3SM HZ FEW036 BKN043 OVC055 M08/M11 A3025 RMK AO2 SNE34 P0000 T10781106
KDUJ 160402Z AUTO 13009KT 2SM -SN FEW039 OVC047 M08/M11 A3026 RMK AO2 P0000 T10781106
KDUJ 160353Z AUTO 13011KT 4SM -SN OVC045 M08/M11 A3026 RMK AO2 SNE33B51 SLP279 P0000 T10781106
KDUJ 160337Z AUTO 12009KT 6SM BR OVC041 M08/M11 A3026 RMK AO2 SNE33 P0000 T10831106
KDUJ 160317Z AUTO 12008KT 2SM -SN BR OVC033 M08/M11 A3026 RMK AO2 P0000 T10831106
KDUJ 160253Z AUTO 12008KT 3SM -SN BR OVC048 M08/M11 A3026 RMK AO2 SNE30B43 SLP283 P0001 60002 T10831106 58002
KDUJ 160251Z AUTO 12008KT 2 1/2SM -SN BR OVC048 M08/M11 A3026 RMK AO2 SNE30B43 P0001
KDUJ 160239Z AUTO 12009KT 4SM BR FEW024 OVC042 M08/M11 A3027 RMK AO2 SNE30 P0001 T10831106
KDUJ 160228Z AUTO 12008KT 2SM -SN BR FEW024 OVC030 M08/M11 A3027 RMK AO2 P0001 T10831106
KDUJ 160153Z AUTO 12007KT 1SM -SN BR VV019 M09/M11 A3027 RMK AO2 SLP287 P0001 T10891111
KDUJ 160148Z AUTO 12006KT 1SM -SN BR VV017 M09/M11 A3027 RMK AO2 P0001
KDUJ 160128Z AUTO 12006KT 3/4SM -SN BR VV016 M09/M11 A3028 RMK AO2 P0001 T10891111
KDUJ 160053Z AUTO 13009KT 1SM -SN VV019 M09/M12 A3027 RMK AO2 SNB07 SLP289 P0000 T10891117
KDUJ 152353Z AUTO 12008KT 1 3/4SM HZ OVC026 M09/M12 A3028 RMK AO2 SNB30E48 SLP290 P0000 60000 T10891122 11078 21094 55000
KDUJ 152332Z AUTO 12008KT 1 3/4SM -SN OVC028 M09/M12 A3027 RMK AO2 SNB30 P0000 T10891122
KDUJ 152314Z AUTO 13008KT 2 1/2SM HZ OVC040 M09/M12 A3027 RMK AO2 T10891122
KDUJ 152253Z AUTO 13008KT 5SM HZ BKN050 OVC070 M09/M13 A3027 RMK AO2 SNE19 SLP289 P0000 T10891128
KDUJ 152229Z AUTO 13009KT 4SM HZ OVC047 M08/M13 A3028 RMK AO2 SNE19 P0000 T10831128
KDUJ 152222Z AUTO 13009KT 2 1/2SM HZ OVC043 M08/M13 A3028 RMK AO2 SNE19 P0000 T10831128
KDUJ 152206Z AUTO 13009KT 1 1/2SM -SN OVC035 M08/M13 A3028 RMK AO2 P0000 T10831128
KDUJ 152153Z AUTO 13010KT 1 1/4SM -SN OVC029 M08/M13 A3028 RMK AO2 SNB32 SLP291 P0000 T10831128
KDUJ 152141Z AUTO 13009G16KT 1SM -SN OVC025 M08/M13 A3029 RMK AO2 SNB32 P0000 T10831133
KDUJ 152133Z AUTO 13010KT 2 1/2SM -SN BKN029 OVC050 M08/M13 A3029 RMK AO2 SNB32 P0000 T10781133
KDUJ 152116Z AUTO 13010KT 10SM FEW022 OVC050 M08/M13 A3028 RMK AO2 T10781133
KDUJ 152053Z AUTO 13007KT 10SM BKN023 BKN060 M08/M13 A3028 RMK AO2 SLP289 60000 T10781133 56013
KDUJ 151953Z AUTO 11010KT 10SM OVC026 M08/M13 A3028 RMK AO2 SLP290 T10831128
KDUJ 151918Z AUTO 13009KT 3SM HZ BKN018 OVC031 M08/M13 A3028 RMK AO2 T10831128
KDUJ 151912Z AUTO 13012KT 2SM HZ SCT022 OVC031 M09/M13 A3028 RMK AO2 T10891128
KDUJ 151853Z AUTO 13009KT 1 1/2SM HZ BKN024 OVC036 M09/M13 A3029 RMK AO2 SNB12E26 SLP295 P0000 T10891128
KDUJ 151825Z AUTO 15008KT 110V190 1 3/4SM -SN BKN027 OVC036 M09/M14 A3031 RMK AO2 SNB12 P0000 T10891139
KDUJ 151815Z AUTO 12010KT 1 3/4SM -SN BKN031 OVC042 M09/M15 A3031 RMK AO2 SNB12 P0000 T10891150
KDUJ 151753Z AUTO 12008KT 9SM OVC043 M09/M16 A3032 RMK AO2 SLP304 T10941161 11094 21156 58023
KDUJ 151653Z AUTO 13008KT 10SM BKN060 OVC070 M11/M17 A3036 RMK AO2 SLP318 T11061167
KDUJ 151553Z AUTO 14009KT 10SM OVC090 M12/M17 A3039 RMK AO2 SLP330 T11171172